sensor_id;sensor_type;location;lat;lon;timestamp;P1;durP1;ratioP1;P2;durP2;ratioP2
66559;SDS011;53413;49.878;8.142;2023-03-14T00:01:55;5.80;;;1.10;;
66559;SDS011;53413;49.878;8.142;2023-03-14T00:04:20;4.53;;;1.03;;
66559;SDS011;53413;49.878;8.142;2023-03-14T00:06:46;4.38;;;0.90;;
66559;SDS011;53413;49.878;8.142;2023-03-14T00:09:12;3.67;;;0.80;;
66559;SDS011;53413;49.878;8.142;2023-03-14T00:11:38;4.95;;;1.10;;
66559;SDS011;53413;49.878;8.142;2023-03-14T00:14:03;3.93;;;0.90;;
66559;SDS011;53413;49.878;8.142;2023-03-14T00:16:28;4.93;;;0.90;;
66559;SDS011;53413;49.878;8.142;2023-03-14T00:18:54;7.70;;;0.97;;
66559;SDS011;53413;49.878;8.142;2023-03-14T00:21:19;3.87;;;1.07;;
66559;SDS011;53413;49.878;8.142;2023-03-14T00:23:44;5.37;;;0.93;;
66559;SDS011;53413;49.878;8.142;2023-03-14T00:26:11;5.30;;;1.00;;
66559;SDS011;53413;49.878;8.142;2023-03-14T00:28:42;6.93;;;1.35;;
66559;SDS011;53413;49.878;8.142;2023-03-14T00:31:08;6.00;;;0.85;;
66559;SDS011;53413;49.878;8.142;2023-03-14T00:33:35;5.67;;;1.10;;
66559;SDS011;53413;49.878;8.142;2023-03-14T00:36:02;4.55;;;0.90;;
66559;SDS011;53413;49.878;8.142;2023-03-14T00:38:31;4.75;;;1.00;;
66559;SDS011;53413;49.878;8.142;2023-03-14T00:40:58;4.72;;;0.95;;
66559;SDS011;53413;49.878;8.142;2023-03-14T00:43:23;4.73;;;0.83;;
66559;SDS011;53413;49.878;8.142;2023-03-14T00:45:50;3.95;;;1.10;;
66559;SDS011;53413;49.878;8.142;2023-03-14T00:48:17;4.57;;;1.00;;
66559;SDS011;53413;49.878;8.142;2023-03-14T00:50:43;5.13;;;1.07;;
66559;SDS011;53413;49.878;8.142;2023-03-14T00:53:09;4.30;;;1.00;;
66559;SDS011;53413;49.878;8.142;2023-03-14T00:55:37;3.93;;;0.90;;
66559;SDS011;53413;49.878;8.142;2023-03-14T00:58:04;4.72;;;0.90;;
66559;SDS011;53413;49.878;8.142;2023-03-14T01:00:30;4.05;;;1.10;;
66559;SDS011;53413;49.878;8.142;2023-03-14T01:02:55;7.22;;;1.10;;
66559;SDS011;53413;49.878;8.142;2023-03-14T01:05:24;5.07;;;1.20;;
66559;SDS011;53413;49.878;8.142;2023-03-14T01:07:49;5.95;;;1.10;;
66559;SDS011;53413;49.878;8.142;2023-03-14T01:10:15;7.83;;;1.23;;
66559;SDS011;53413;49.878;8.142;2023-03-14T01:12:41;5.15;;;1.13;;
66559;SDS011;53413;49.878;8.142;2023-03-14T01:15:06;6.23;;;1.20;;
66559;SDS011;53413;49.878;8.142;2023-03-14T01:17:32;5.37;;;0.90;;
66559;SDS011;53413;49.878;8.142;2023-03-14T01:19:57;3.33;;;0.95;;
66559;SDS011;53413;49.878;8.142;2023-03-14T01:22:24;3.60;;;1.10;;
66559;SDS011;53413;49.878;8.142;2023-03-14T01:24:50;5.68;;;1.08;;
66559;SDS011;53413;49.878;8.142;2023-03-14T01:27:15;4.03;;;1.03;;
66559;SDS011;53413;49.878;8.142;2023-03-14T01:29:40;4.20;;;1.10;;
66559;SDS011;53413;49.878;8.142;2023-03-14T01:32:06;6.70;;;1.10;;
66559;SDS011;53413;49.878;8.142;2023-03-14T01:34:31;4.13;;;1.00;;
66559;SDS011;53413;49.878;8.142;2023-03-14T01:36:56;5.60;;;1.23;;
66559;SDS011;53413;49.878;8.142;2023-03-14T01:39:22;5.07;;;1.00;;
66559;SDS011;53413;49.878;8.142;2023-03-14T01:41:47;5.40;;;1.33;;
66559;SDS011;53413;49.878;8.142;2023-03-14T01:44:13;5.78;;;1.13;;
66559;SDS011;53413;49.878;8.142;2023-03-14T01:54:39;5.90;;;1.10;;
66559;SDS011;53413;49.878;8.142;2023-03-14T01:59:31;4.07;;;1.10;;
66559;SDS011;53413;49.878;8.142;2023-03-14T02:01:57;6.25;;;0.93;;
66559;SDS011;53413;49.878;8.142;2023-03-14T02:04:24;6.13;;;1.00;;
66559;SDS011;53413;49.878;8.142;2023-03-14T02:09:32;5.53;;;1.20;;
66559;SDS011;53413;49.878;8.142;2023-03-14T02:11:58;4.43;;;1.20;;
66559;SDS011;53413;49.878;8.142;2023-03-14T02:14:29;4.27;;;1.10;;
66559;SDS011;53413;49.878;8.142;2023-03-14T02:16:59;5.15;;;1.00;;
66559;SDS011;53413;49.878;8.142;2023-03-14T02:19:39;5.82;;;1.15;;
66559;SDS011;53413;49.878;8.142;2023-03-14T02:22:26;5.28;;;1.10;;
66559;SDS011;53413;49.878;8.142;2023-03-14T02:27:32;5.32;;;1.38;;
66559;SDS011;53413;49.878;8.142;2023-03-14T02:30:00;5.20;;;1.20;;
66559;SDS011;53413;49.878;8.142;2023-03-14T02:32:29;5.03;;;1.38;;
66559;SDS011;53413;49.878;8.142;2023-03-14T02:34:57;5.82;;;1.10;;
66559;SDS011;53413;49.878;8.142;2023-03-14T02:37:32;5.85;;;1.20;;
66559;SDS011;53413;49.878;8.142;2023-03-14T02:40:06;7.00;;;1.20;;
66559;SDS011;53413;49.878;8.142;2023-03-14T02:42:32;6.33;;;1.23;;
66559;SDS011;53413;49.878;8.142;2023-03-14T02:45:43;6.57;;;1.10;;
66559;SDS011;53413;49.878;8.142;2023-03-14T02:47:44;5.90;;;1.10;;
66559;SDS011;53413;49.878;8.142;2023-03-14T02:50:17;6.28;;;1.30;;
66559;SDS011;53413;49.878;8.142;2023-03-14T02:52:45;7.00;;;1.20;;
66559;SDS011;53413;49.878;8.142;2023-03-14T02:55:11;6.70;;;1.30;;
66559;SDS011;53413;49.878;8.142;2023-03-14T02:57:37;4.07;;;1.10;;
66559;SDS011;53413;49.878;8.142;2023-03-14T03:00:03;5.20;;;1.10;;
66559;SDS011;53413;49.878;8.142;2023-03-14T03:02:30;5.72;;;1.08;;
66559;SDS011;53413;49.878;8.142;2023-03-14T03:04:56;4.95;;;1.25;;
66559;SDS011;53413;49.878;8.142;2023-03-14T03:07:21;6.03;;;1.10;;
66559;SDS011;53413;49.878;8.142;2023-03-14T03:09:47;6.80;;;1.03;;
66559;SDS011;53413;49.878;8.142;2023-03-14T03:12:12;6.60;;;1.30;;
66559;SDS011;53413;49.878;8.142;2023-03-14T03:14:38;5.63;;;1.10;;
66559;SDS011;53413;49.878;8.142;2023-03-14T03:17:06;6.40;;;1.17;;
66559;SDS011;53413;49.878;8.142;2023-03-14T03:19:32;4.25;;;1.00;;
66559;SDS011;53413;49.878;8.142;2023-03-14T03:21:57;4.47;;;1.07;;
66559;SDS011;53413;49.878;8.142;2023-03-14T03:24:23;6.03;;;1.17;;
66559;SDS011;53413;49.878;8.142;2023-03-14T03:26:49;5.00;;;1.00;;
66559;SDS011;53413;49.878;8.142;2023-03-14T03:29:14;5.35;;;1.00;;
66559;SDS011;53413;49.878;8.142;2023-03-14T03:31:40;4.50;;;1.05;;
66559;SDS011;53413;49.878;8.142;2023-03-14T03:34:06;5.77;;;1.00;;
66559;SDS011;53413;49.878;8.142;2023-03-14T03:36:32;5.53;;;1.10;;
66559;SDS011;53413;49.878;8.142;2023-03-14T03:38:57;5.37;;;0.97;;
66559;SDS011;53413;49.878;8.142;2023-03-14T03:41:22;5.43;;;0.97;;
66559;SDS011;53413;49.878;8.142;2023-03-14T03:43:48;5.37;;;1.10;;
66559;SDS011;53413;49.878;8.142;2023-03-14T03:46:13;4.45;;;0.90;;
66559;SDS011;53413;49.878;8.142;2023-03-14T03:48:39;4.20;;;0.90;;
66559;SDS011;53413;49.878;8.142;2023-03-14T03:51:05;3.55;;;0.88;;
66559;SDS011;53413;49.878;8.142;2023-03-14T03:53:31;4.73;;;1.10;;
66559;SDS011;53413;49.878;8.142;2023-03-14T03:55:56;5.03;;;1.00;;
66559;SDS011;53413;49.878;8.142;2023-03-14T03:58:21;3.47;;;0.70;;
66559;SDS011;53413;49.878;8.142;2023-03-14T04:00:47;6.57;;;1.00;;
66559;SDS011;53413;49.878;8.142;2023-03-14T04:03:12;6.17;;;0.90;;
66559;SDS011;53413;49.878;8.142;2023-03-14T04:05:37;3.53;;;0.83;;
66559;SDS011;53413;49.878;8.142;2023-03-14T04:08:03;5.20;;;1.00;;
66559;SDS011;53413;49.878;8.142;2023-03-14T04:10:29;5.68;;;0.93;;
66559;SDS011;53413;49.878;8.142;2023-03-14T04:12:55;3.70;;;0.80;;
66559;SDS011;53413;49.878;8.142;2023-03-14T04:15:20;5.60;;;0.80;;
66559;SDS011;53413;49.878;8.142;2023-03-14T04:17:45;4.00;;;0.83;;
66559;SDS011;53413;49.878;8.142;2023-03-14T04:20:11;4.97;;;0.90;;
66559;SDS011;53413;49.878;8.142;2023-03-14T04:22:37;4.82;;;0.80;;
66559;SDS011;53413;49.878;8.142;2023-03-14T04:25:03;3.80;;;0.90;;
66559;SDS011;53413;49.878;8.142;2023-03-14T04:27:29;5.35;;;0.88;;
66559;SDS011;53413;49.878;8.142;2023-03-14T04:29:54;6.80;;;1.00;;
66559;SDS011;53413;49.878;8.142;2023-03-14T04:32:20;6.17;;;1.00;;
66559;SDS011;53413;49.878;8.142;2023-03-14T04:34:45;4.30;;;0.83;;
66559;SDS011;53413;49.878;8.142;2023-03-14T04:37:10;4.67;;;0.80;;
66559;SDS011;53413;49.878;8.142;2023-03-14T04:39:36;3.83;;;0.80;;
66559;SDS011;53413;49.878;8.142;2023-03-14T04:42:01;5.43;;;1.07;;
66559;SDS011;53413;49.878;8.142;2023-03-14T04:44:27;4.70;;;0.80;;
66559;SDS011;53413;49.878;8.142;2023-03-14T04:46:52;3.87;;;0.80;;
66559;SDS011;53413;49.878;8.142;2023-03-14T04:49:17;6.37;;;1.43;;
66559;SDS011;53413;49.878;8.142;2023-03-14T04:51:43;5.73;;;1.00;;
66559;SDS011;53413;49.878;8.142;2023-03-14T04:54:08;5.60;;;1.20;;
66559;SDS011;53413;49.878;8.142;2023-03-14T04:56:34;4.72;;;0.90;;
66559;SDS011;53413;49.878;8.142;2023-03-14T04:58:59;3.67;;;0.90;;
66559;SDS011;53413;49.878;8.142;2023-03-14T05:01:24;3.73;;;0.90;;
66559;SDS011;53413;49.878;8.142;2023-03-14T05:03:50;6.07;;;1.00;;
66559;SDS011;53413;49.878;8.142;2023-03-14T05:06:15;5.28;;;0.80;;
66559;SDS011;53413;49.878;8.142;2023-03-14T05:08:41;5.37;;;0.80;;
66559;SDS011;53413;49.878;8.142;2023-03-14T05:11:09;4.27;;;0.87;;
66559;SDS011;53413;49.878;8.142;2023-03-14T05:13:35;3.80;;;0.90;;
66559;SDS011;53413;49.878;8.142;2023-03-14T05:16:04;3.40;;;0.77;;
66559;SDS011;53413;49.878;8.142;2023-03-14T05:18:31;5.35;;;0.90;;
66559;SDS011;53413;49.878;8.142;2023-03-14T05:20:57;5.67;;;1.27;;
66559;SDS011;53413;49.878;8.142;2023-03-14T05:23:22;6.03;;;0.80;;
66559;SDS011;53413;49.878;8.142;2023-03-14T05:25:47;4.10;;;0.80;;
66559;SDS011;53413;49.878;8.142;2023-03-14T05:28:13;2.72;;;0.70;;
66559;SDS011;53413;49.878;8.142;2023-03-14T05:30:38;3.53;;;0.77;;
66559;SDS011;53413;49.878;8.142;2023-03-14T05:33:04;5.20;;;0.80;;
66559;SDS011;53413;49.878;8.142;2023-03-14T05:35:29;4.23;;;0.90;;
66559;SDS011;53413;49.878;8.142;2023-03-14T05:37:54;5.87;;;1.10;;
66559;SDS011;53413;49.878;8.142;2023-03-14T05:40:20;4.00;;;0.80;;
66559;SDS011;53413;49.878;8.142;2023-03-14T05:42:46;4.97;;;0.80;;
66559;SDS011;53413;49.878;8.142;2023-03-14T05:45:12;4.40;;;0.80;;
66559;SDS011;53413;49.878;8.142;2023-03-14T05:47:37;4.97;;;0.90;;
66559;SDS011;53413;49.878;8.142;2023-03-14T05:50:03;3.63;;;0.90;;
66559;SDS011;53413;49.878;8.142;2023-03-14T05:52:28;4.35;;;0.70;;
66559;SDS011;53413;49.878;8.142;2023-03-14T05:54:54;4.90;;;0.80;;
66559;SDS011;53413;49.878;8.142;2023-03-14T05:57:19;4.33;;;0.80;;
66559;SDS011;53413;49.878;8.142;2023-03-14T05:59:45;4.20;;;0.70;;
66559;SDS011;53413;49.878;8.142;2023-03-14T06:02:10;3.13;;;0.70;;
66559;SDS011;53413;49.878;8.142;2023-03-14T06:04:36;3.20;;;0.67;;
66559;SDS011;53413;49.878;8.142;2023-03-14T06:07:01;3.47;;;0.70;;
66559;SDS011;53413;49.878;8.142;2023-03-14T06:09:26;2.93;;;0.70;;
66559;SDS011;53413;49.878;8.142;2023-03-14T06:11:52;3.85;;;0.77;;
66559;SDS011;53413;49.878;8.142;2023-03-14T06:14:17;4.05;;;0.80;;
66559;SDS011;53413;49.878;8.142;2023-03-14T06:16:43;3.43;;;0.70;;
66559;SDS011;53413;49.878;8.142;2023-03-14T06:19:08;3.80;;;0.83;;
66559;SDS011;53413;49.878;8.142;2023-03-14T06:21:34;3.35;;;0.70;;
66559;SDS011;53413;49.878;8.142;2023-03-14T06:24:00;3.70;;;0.70;;
66559;SDS011;53413;49.878;8.142;2023-03-14T06:26:25;4.38;;;0.90;;
66559;SDS011;53413;49.878;8.142;2023-03-14T06:28:50;4.40;;;0.80;;
66559;SDS011;53413;49.878;8.142;2023-03-14T06:31:16;4.23;;;0.90;;
66559;SDS011;53413;49.878;8.142;2023-03-14T06:33:42;3.67;;;0.63;;
66559;SDS011;53413;49.878;8.142;2023-03-14T06:36:07;3.30;;;1.00;;
66559;SDS011;53413;49.878;8.142;2023-03-14T06:38:33;3.20;;;0.80;;
66559;SDS011;53413;49.878;8.142;2023-03-14T06:41:05;3.58;;;0.80;;
66559;SDS011;53413;49.878;8.142;2023-03-14T06:43:31;3.05;;;0.80;;
66559;SDS011;53413;49.878;8.142;2023-03-14T06:45:57;4.43;;;0.80;;
66559;SDS011;53413;49.878;8.142;2023-03-14T06:48:23;3.88;;;0.60;;
66559;SDS011;53413;49.878;8.142;2023-03-14T06:50:48;3.00;;;0.70;;
66559;SDS011;53413;49.878;8.142;2023-03-14T06:53:14;3.80;;;0.70;;
66559;SDS011;53413;49.878;8.142;2023-03-14T06:55:39;3.80;;;0.80;;
66559;SDS011;53413;49.878;8.142;2023-03-14T06:58:05;3.80;;;1.00;;
66559;SDS011;53413;49.878;8.142;2023-03-14T07:00:32;4.68;;;0.90;;
66559;SDS011;53413;49.878;8.142;2023-03-14T07:02:59;3.67;;;0.70;;
66559;SDS011;53413;49.878;8.142;2023-03-14T07:05:24;3.27;;;0.90;;
66559;SDS011;53413;49.878;8.142;2023-03-14T07:07:49;3.23;;;0.80;;
66559;SDS011;53413;49.878;8.142;2023-03-14T07:10:15;4.77;;;0.90;;
66559;SDS011;53413;49.878;8.142;2023-03-14T07:12:40;3.60;;;0.80;;
66559;SDS011;53413;49.878;8.142;2023-03-14T07:15:06;3.13;;;0.63;;
66559;SDS011;53413;49.878;8.142;2023-03-14T07:17:31;3.10;;;0.80;;
66559;SDS011;53413;49.878;8.142;2023-03-14T07:19:57;3.03;;;0.70;;
66559;SDS011;53413;49.878;8.142;2023-03-14T07:22:24;3.58;;;0.90;;
66559;SDS011;53413;49.878;8.142;2023-03-14T07:24:49;4.47;;;1.83;;
66559;SDS011;53413;49.878;8.142;2023-03-14T07:27:14;4.03;;;1.08;;
66559;SDS011;53413;49.878;8.142;2023-03-14T07:29:40;3.73;;;0.80;;
66559;SDS011;53413;49.878;8.142;2023-03-14T07:32:05;4.83;;;1.00;;
66559;SDS011;53413;49.878;8.142;2023-03-14T07:34:31;3.73;;;0.60;;
66559;SDS011;53413;49.878;8.142;2023-03-14T07:36:56;3.53;;;0.90;;
66559;SDS011;53413;49.878;8.142;2023-03-14T07:39:21;3.72;;;0.60;;
66559;SDS011;53413;49.878;8.142;2023-03-14T07:41:47;4.47;;;0.90;;
66559;SDS011;53413;49.878;8.142;2023-03-14T07:44:12;3.63;;;0.90;;
66559;SDS011;53413;49.878;8.142;2023-03-14T07:46:38;3.60;;;1.10;;
66559;SDS011;53413;49.878;8.142;2023-03-14T07:49:03;4.33;;;1.43;;
66559;SDS011;53413;49.878;8.142;2023-03-14T07:51:28;4.27;;;1.37;;
66559;SDS011;53413;49.878;8.142;2023-03-14T07:53:54;3.50;;;1.20;;
66559;SDS011;53413;49.878;8.142;2023-03-14T07:56:19;3.87;;;1.30;;
66559;SDS011;53413;49.878;8.142;2023-03-14T07:58:44;3.78;;;1.48;;
66559;SDS011;53413;49.878;8.142;2023-03-14T08:01:09;4.27;;;1.30;;
66559;SDS011;53413;49.878;8.142;2023-03-14T08:03:35;3.70;;;1.30;;
66559;SDS011;53413;49.878;8.142;2023-03-14T08:06:00;3.40;;;1.07;;
66559;SDS011;53413;49.878;8.142;2023-03-14T08:08:26;3.83;;;1.07;;
66559;SDS011;53413;49.878;8.142;2023-03-14T08:10:51;3.30;;;1.30;;
66559;SDS011;53413;49.878;8.142;2023-03-14T08:13:16;3.65;;;1.35;;
66559;SDS011;53413;49.878;8.142;2023-03-14T08:15:42;3.88;;;1.40;;
66559;SDS011;53413;49.878;8.142;2023-03-14T08:18:07;3.80;;;1.30;;
66559;SDS011;53413;49.878;8.142;2023-03-14T08:20:33;3.90;;;1.33;;
66559;SDS011;53413;49.878;8.142;2023-03-14T08:23:00;5.72;;;1.42;;
66559;SDS011;53413;49.878;8.142;2023-03-14T08:25:26;3.58;;;1.30;;
66559;SDS011;53413;49.878;8.142;2023-03-14T08:27:52;3.05;;;1.30;;
66559;SDS011;53413;49.878;8.142;2023-03-14T08:30:18;4.17;;;1.37;;
66559;SDS011;53413;49.878;8.142;2023-03-14T08:32:45;4.25;;;1.58;;
66559;SDS011;53413;49.878;8.142;2023-03-14T08:35:10;4.33;;;1.70;;
66559;SDS011;53413;49.878;8.142;2023-03-14T08:37:36;4.60;;;1.40;;
66559;SDS011;53413;49.878;8.142;2023-03-14T08:40:03;3.40;;;1.40;;
66559;SDS011;53413;49.878;8.142;2023-03-14T08:42:33;3.17;;;1.40;;
66559;SDS011;53413;49.878;8.142;2023-03-14T08:44:58;2.75;;;1.17;;
66559;SDS011;53413;49.878;8.142;2023-03-14T08:47:24;2.80;;;1.63;;
66559;SDS011;53413;49.878;8.142;2023-03-14T08:49:49;3.07;;;1.20;;
66559;SDS011;53413;49.878;8.142;2023-03-14T08:52:14;3.27;;;1.20;;
66559;SDS011;53413;49.878;8.142;2023-03-14T08:54:41;3.35;;;1.10;;
66559;SDS011;53413;49.878;8.142;2023-03-14T08:57:08;3.88;;;1.30;;
66559;SDS011;53413;49.878;8.142;2023-03-14T08:59:33;3.40;;;1.30;;
66559;SDS011;53413;49.878;8.142;2023-03-14T09:01:59;3.13;;;1.20;;
66559;SDS011;53413;49.878;8.142;2023-03-14T09:04:24;4.33;;;1.17;;
66559;SDS011;53413;49.878;8.142;2023-03-14T09:06:49;4.47;;;1.50;;
66559;SDS011;53413;49.878;8.142;2023-03-14T09:09:15;3.42;;;1.35;;
66559;SDS011;53413;49.878;8.142;2023-03-14T09:11:40;4.40;;;1.30;;
66559;SDS011;53413;49.878;8.142;2023-03-14T09:14:06;3.50;;;1.40;;
66559;SDS011;53413;49.878;8.142;2023-03-14T09:16:33;3.00;;;1.23;;
66559;SDS011;53413;49.878;8.142;2023-03-14T09:18:58;2.95;;;1.30;;
66559;SDS011;53413;49.878;8.142;2023-03-14T09:21:25;3.53;;;1.27;;
66559;SDS011;53413;49.878;8.142;2023-03-14T09:23:51;4.10;;;1.20;;
66559;SDS011;53413;49.878;8.142;2023-03-14T09:26:16;4.05;;;1.58;;
66559;SDS011;53413;49.878;8.142;2023-03-14T09:28:41;4.05;;;1.30;;
66559;SDS011;53413;49.878;8.142;2023-03-14T09:31:07;4.17;;;1.20;;
66559;SDS011;53413;49.878;8.142;2023-03-14T09:33:34;3.50;;;1.40;;
66559;SDS011;53413;49.878;8.142;2023-03-14T09:36:00;3.57;;;1.13;;
66559;SDS011;53413;49.878;8.142;2023-03-14T09:38:26;3.28;;;1.17;;
66559;SDS011;53413;49.878;8.142;2023-03-14T09:40:52;3.07;;;1.13;;
66559;SDS011;53413;49.878;8.142;2023-03-14T09:43:18;3.45;;;1.30;;
66559;SDS011;53413;49.878;8.142;2023-03-14T09:45:46;3.95;;;1.30;;
66559;SDS011;53413;49.878;8.142;2023-03-14T09:48:19;3.42;;;1.35;;
66559;SDS011;53413;49.878;8.142;2023-03-14T09:50:48;3.13;;;1.17;;
66559;SDS011;53413;49.878;8.142;2023-03-14T09:53:19;3.10;;;1.20;;
66559;SDS011;53413;49.878;8.142;2023-03-14T09:55:49;3.53;;;1.50;;
66559;SDS011;53413;49.878;8.142;2023-03-14T09:58:18;3.58;;;1.23;;
66559;SDS011;53413;49.878;8.142;2023-03-14T10:00:45;3.90;;;1.38;;
66559;SDS011;53413;49.878;8.142;2023-03-14T10:05:36;3.20;;;1.40;;
66559;SDS011;53413;49.878;8.142;2023-03-14T10:08:02;3.50;;;1.40;;
66559;SDS011;53413;49.878;8.142;2023-03-14T10:10:28;2.90;;;1.30;;
66559;SDS011;53413;49.878;8.142;2023-03-14T10:12:58;3.17;;;1.20;;
66559;SDS011;53413;49.878;8.142;2023-03-14T10:18:18;3.30;;;1.40;;
66559;SDS011;53413;49.878;8.142;2023-03-14T10:20:45;3.35;;;1.50;;
66559;SDS011;53413;49.878;8.142;2023-03-14T10:25:38;3.43;;;1.47;;
66559;SDS011;53413;49.878;8.142;2023-03-14T10:28:10;3.15;;;1.40;;
66559;SDS011;53413;49.878;8.142;2023-03-14T10:30:49;3.35;;;1.30;;
66559;SDS011;53413;49.878;8.142;2023-03-14T10:35:42;4.20;;;1.40;;
66559;SDS011;53413;49.878;8.142;2023-03-14T10:38:12;3.83;;;1.60;;
66559;SDS011;53413;49.878;8.142;2023-03-14T10:40:39;3.40;;;1.50;;
66559;SDS011;53413;49.878;8.142;2023-03-14T10:43:13;3.00;;;1.30;;
66559;SDS011;53413;49.878;8.142;2023-03-14T10:45:42;3.30;;;1.35;;
66559;SDS011;53413;49.878;8.142;2023-03-14T10:51:10;2.78;;;1.17;;
66559;SDS011;53413;49.878;8.142;2023-03-14T10:56:21;2.95;;;1.08;;
66559;SDS011;53413;49.878;8.142;2023-03-14T10:58:48;2.70;;;1.02;;
66559;SDS011;53413;49.878;8.142;2023-03-14T11:07:01;2.63;;;0.90;;
66559;SDS011;53413;49.878;8.142;2023-03-14T11:09:49;2.40;;;0.90;;
66559;SDS011;53413;49.878;8.142;2023-03-14T11:21:58;2.50;;;0.87;;
66559;SDS011;53413;49.878;8.142;2023-03-14T11:27:00;2.40;;;0.70;;
66559;SDS011;53413;49.878;8.142;2023-03-14T11:32:17;2.40;;;0.80;;
66559;SDS011;53413;49.878;8.142;2023-03-14T11:35:00;3.60;;;0.80;;
66559;SDS011;53413;49.878;8.142;2023-03-14T11:37:32;4.97;;;0.85;;
66559;SDS011;53413;49.878;8.142;2023-03-14T11:40:01;2.58;;;0.68;;
66559;SDS011;53413;49.878;8.142;2023-03-14T11:42:41;1.45;;;0.50;;
66559;SDS011;53413;49.878;8.142;2023-03-14T11:48:07;1.53;;;0.40;;
66559;SDS011;53413;49.878;8.142;2023-03-14T11:50:36;0.73;;;0.30;;
66559;SDS011;53413;49.878;8.142;2023-03-14T11:53:08;1.23;;;0.35;;
66559;SDS011;53413;49.878;8.142;2023-03-14T11:55:40;1.20;;;0.40;;
66559;SDS011;53413;49.878;8.142;2023-03-14T12:00:51;0.90;;;0.37;;
66559;SDS011;53413;49.878;8.142;2023-03-14T12:09:25;2.15;;;0.55;;
66559;SDS011;53413;49.878;8.142;2023-03-14T12:11:54;1.40;;;0.50;;
66559;SDS011;53413;49.878;8.142;2023-03-14T12:14:30;1.23;;;0.40;;
66559;SDS011;53413;49.878;8.142;2023-03-14T12:19:35;2.58;;;0.50;;
66559;SDS011;53413;49.878;8.142;2023-03-14T12:22:07;1.43;;;0.50;;
66559;SDS011;53413;49.878;8.142;2023-03-14T12:24:44;2.22;;;0.43;;
66559;SDS011;53413;49.878;8.142;2023-03-14T12:27:37;1.60;;;0.50;;
66559;SDS011;53413;49.878;8.142;2023-03-14T12:30:14;1.48;;;0.50;;
66559;SDS011;53413;49.878;8.142;2023-03-14T12:32:40;1.45;;;0.50;;
66559;SDS011;53413;49.878;8.142;2023-03-14T12:35:07;1.60;;;0.50;;
66559;SDS011;53413;49.878;8.142;2023-03-14T12:43:50;1.00;;;0.40;;
66559;SDS011;53413;49.878;8.142;2023-03-14T12:49:04;1.65;;;0.50;;
66559;SDS011;53413;49.878;8.142;2023-03-14T12:51:37;1.90;;;0.60;;
66559;SDS011;53413;49.878;8.142;2023-03-14T13:04:34;2.03;;;0.60;;
66559;SDS011;53413;49.878;8.142;2023-03-14T13:07:12;2.47;;;0.80;;
66559;SDS011;53413;49.878;8.142;2023-03-14T13:09:54;2.33;;;0.70;;
66559;SDS011;53413;49.878;8.142;2023-03-14T13:12:27;2.17;;;0.80;;
66559;SDS011;53413;49.878;8.142;2023-03-14T13:14:57;2.17;;;0.70;;
66559;SDS011;53413;49.878;8.142;2023-03-14T13:17:30;2.35;;;0.90;;
66559;SDS011;53413;49.878;8.142;2023-03-14T13:19:59;2.70;;;0.85;;
66559;SDS011;53413;49.878;8.142;2023-03-14T13:22:31;2.72;;;0.80;;
66559;SDS011;53413;49.878;8.142;2023-03-14T13:25:00;2.42;;;0.80;;
66559;SDS011;53413;49.878;8.142;2023-03-14T13:27:29;2.93;;;0.87;;
66559;SDS011;53413;49.878;8.142;2023-03-14T13:29:56;2.30;;;0.75;;
66559;SDS011;53413;49.878;8.142;2023-03-14T13:32:25;2.87;;;0.90;;
66559;SDS011;53413;49.878;8.142;2023-03-14T13:34:55;2.63;;;0.80;;
66559;SDS011;53413;49.878;8.142;2023-03-14T13:37:22;2.47;;;0.90;;
66559;SDS011;53413;49.878;8.142;2023-03-14T13:39:56;2.70;;;1.00;;
66559;SDS011;53413;49.878;8.142;2023-03-14T13:42:26;2.50;;;0.90;;
66559;SDS011;53413;49.878;8.142;2023-03-14T13:44:54;3.20;;;1.07;;
66559;SDS011;53413;49.878;8.142;2023-03-14T13:47:21;2.60;;;1.02;;
66559;SDS011;53413;49.878;8.142;2023-03-14T13:49:49;2.78;;;0.98;;
66559;SDS011;53413;49.878;8.142;2023-03-14T13:52:27;2.15;;;0.70;;
66559;SDS011;53413;49.878;8.142;2023-03-14T13:54:56;2.67;;;0.90;;
66559;SDS011;53413;49.878;8.142;2023-03-14T13:57:23;2.38;;;0.90;;
66559;SDS011;53413;49.878;8.142;2023-03-14T13:59:59;2.57;;;0.83;;
66559;SDS011;53413;49.878;8.142;2023-03-14T14:02:34;2.35;;;0.65;;
66559;SDS011;53413;49.878;8.142;2023-03-14T14:05:02;3.30;;;1.00;;
66559;SDS011;53413;49.878;8.142;2023-03-14T14:07:29;2.50;;;0.90;;
66559;SDS011;53413;49.878;8.142;2023-03-14T14:09:55;2.47;;;0.73;;
66559;SDS011;53413;49.878;8.142;2023-03-14T14:12:25;2.87;;;0.87;;
66559;SDS011;53413;49.878;8.142;2023-03-14T14:15:05;3.70;;;1.10;;
66559;SDS011;53413;49.878;8.142;2023-03-14T14:20:16;3.17;;;1.13;;
66559;SDS011;53413;49.878;8.142;2023-03-14T14:22:46;2.83;;;1.10;;
66559;SDS011;53413;49.878;8.142;2023-03-14T14:25:13;3.40;;;1.20;;
66559;SDS011;53413;49.878;8.142;2023-03-14T14:27:41;2.70;;;1.00;;
66559;SDS011;53413;49.878;8.142;2023-03-14T14:32:42;2.70;;;1.00;;
66559;SDS011;53413;49.878;8.142;2023-03-14T14:35:10;3.10;;;1.13;;
66559;SDS011;53413;49.878;8.142;2023-03-14T14:37:46;3.38;;;1.20;;
66559;SDS011;53413;49.878;8.142;2023-03-14T14:40:21;2.83;;;1.00;;
66559;SDS011;53413;49.878;8.142;2023-03-14T14:42:47;3.67;;;1.00;;
66559;SDS011;53413;49.878;8.142;2023-03-14T14:45:16;3.65;;;1.10;;
66559;SDS011;53413;49.878;8.142;2023-03-14T14:47:54;3.10;;;1.20;;
66559;SDS011;53413;49.878;8.142;2023-03-14T14:50:33;3.42;;;1.15;;
66559;SDS011;53413;49.878;8.142;2023-03-14T14:53:02;3.70;;;1.00;;
66559;SDS011;53413;49.878;8.142;2023-03-14T14:55:49;3.30;;;1.00;;
66559;SDS011;53413;49.878;8.142;2023-03-14T14:58:26;2.95;;;0.90;;
66559;SDS011;53413;49.878;8.142;2023-03-14T15:03:28;3.50;;;1.00;;
66559;SDS011;53413;49.878;8.142;2023-03-14T15:05:55;3.88;;;1.00;;
66559;SDS011;53413;49.878;8.142;2023-03-14T15:08:21;3.37;;;1.00;;
66559;SDS011;53413;49.878;8.142;2023-03-14T15:10:46;3.00;;;0.90;;
66559;SDS011;53413;49.878;8.142;2023-03-14T15:13:12;2.90;;;0.80;;
66559;SDS011;53413;49.878;8.142;2023-03-14T15:15:38;2.78;;;0.90;;
66559;SDS011;53413;49.878;8.142;2023-03-14T15:18:10;3.33;;;0.90;;
66559;SDS011;53413;49.878;8.142;2023-03-14T15:20:39;4.28;;;0.80;;
66559;SDS011;53413;49.878;8.142;2023-03-14T15:23:08;2.63;;;0.83;;
66559;SDS011;53413;49.878;8.142;2023-03-14T15:25:35;3.42;;;0.80;;
66559;SDS011;53413;49.878;8.142;2023-03-14T15:28:01;3.00;;;0.80;;
66559;SDS011;53413;49.878;8.142;2023-03-14T15:30:27;2.65;;;0.80;;
66559;SDS011;53413;49.878;8.142;2023-03-14T15:32:52;3.25;;;0.75;;
66559;SDS011;53413;49.878;8.142;2023-03-14T15:35:17;2.67;;;0.90;;
66559;SDS011;53413;49.878;8.142;2023-03-14T15:37:43;3.13;;;0.83;;
66559;SDS011;53413;49.878;8.142;2023-03-14T15:40:10;3.83;;;0.90;;
66559;SDS011;53413;49.878;8.142;2023-03-14T15:42:39;2.75;;;0.88;;
66559;SDS011;53413;49.878;8.142;2023-03-14T15:45:05;3.45;;;0.90;;
66559;SDS011;53413;49.878;8.142;2023-03-14T15:47:31;3.22;;;0.82;;
66559;SDS011;53413;49.878;8.142;2023-03-14T15:49:57;2.67;;;0.80;;
66559;SDS011;53413;49.878;8.142;2023-03-14T15:52:22;3.83;;;0.90;;
66559;SDS011;53413;49.878;8.142;2023-03-14T15:54:48;3.03;;;0.80;;
66559;SDS011;53413;49.878;8.142;2023-03-14T15:57:13;4.23;;;1.13;;
66559;SDS011;53413;49.878;8.142;2023-03-14T15:59:38;3.47;;;0.93;;
66559;SDS011;53413;49.878;8.142;2023-03-14T16:02:04;3.83;;;0.90;;
66559;SDS011;53413;49.878;8.142;2023-03-14T16:04:30;3.88;;;0.90;;
66559;SDS011;53413;49.878;8.142;2023-03-14T16:06:55;4.03;;;0.80;;
66559;SDS011;53413;49.878;8.142;2023-03-14T16:09:20;3.23;;;0.80;;
66559;SDS011;53413;49.878;8.142;2023-03-14T16:11:46;3.00;;;0.80;;
66559;SDS011;53413;49.878;8.142;2023-03-14T16:14:11;3.43;;;0.80;;
66559;SDS011;53413;49.878;8.142;2023-03-14T16:16:37;3.45;;;0.75;;
66559;SDS011;53413;49.878;8.142;2023-03-14T16:19:02;4.67;;;0.90;;
66559;SDS011;53413;49.878;8.142;2023-03-14T16:21:30;3.45;;;0.90;;
66559;SDS011;53413;49.878;8.142;2023-03-14T16:23:55;2.73;;;0.80;;